createdAt,value
2022-10-26T00:00:28.890Z,43.72
2022-10-26T00:02:55.912Z,35.90
2022-10-26T00:05:24.020Z,28.40
2022-10-26T00:07:51.138Z,27.63
2022-10-26T00:10:17.925Z,40.92
2022-10-26T00:12:44.381Z,26.17
2022-10-26T00:15:10.935Z,41.83
2022-10-26T00:17:37.414Z,14.60
2022-10-26T00:20:04.175Z,35.95
2022-10-26T00:22:30.680Z,37.33
2022-10-26T00:24:57.265Z,45.42
2022-10-26T00:27:23.762Z,28.30
2022-10-26T00:29:50.208Z,33.15
2022-10-26T00:32:16.702Z,34.08
2022-10-26T00:34:43.171Z,31.48
2022-10-26T00:37:09.756Z,41.97
2022-10-26T00:39:36.224Z,35.03
2022-10-26T00:42:02.687Z,46.88
2022-10-26T00:44:57.698Z,47.88
2022-10-26T00:47:44.937Z,32.05
2022-10-26T00:50:37.520Z,42.88
2022-10-26T00:53:06.417Z,35.55
2022-10-26T00:55:37.385Z,38.45
2022-10-26T00:58:06.928Z,45.20
2022-10-26T01:00:33.457Z,43.78
2022-10-26T01:03:04.452Z,53.08
2022-10-26T01:05:32.267Z,47.85
2022-10-26T01:07:58.925Z,57.97
2022-10-26T01:10:27.221Z,57.50
2022-10-26T01:12:56.706Z,73.47
2022-10-26T01:15:33.600Z,60.58
2022-10-26T01:18:11.685Z,52.47
2022-10-26T01:20:43.912Z,62.45
2022-10-26T01:23:26.454Z,53.65
2022-10-26T01:26:14.246Z,68.72
2022-10-26T01:28:59.482Z,60.80
2022-10-26T01:31:37.351Z,77.97
2022-10-26T01:34:13.404Z,86.75
2022-10-26T01:36:52.973Z,111.68
2022-10-26T01:39:28.015Z,85.30
2022-10-26T01:41:59.780Z,62.55
2022-10-26T01:44:36.903Z,109.75
2022-10-26T01:47:04.597Z,87.78
2022-10-26T01:49:38.566Z,106.85
2022-10-26T01:52:05.593Z,103.00
2022-10-26T01:57:17.300Z,118.15
2022-10-26T01:59:58.431Z,101.88
2022-10-26T02:02:51.728Z,91.15
2022-10-26T02:05:33.067Z,48.08
2022-10-26T02:08:05.506Z,104.22
2022-10-26T02:10:59.785Z,123.95
2022-10-26T02:13:48.271Z,88.63
2022-10-26T02:16:38.472Z,77.40
2022-10-26T02:19:19.266Z,63.70
2022-10-26T02:21:49.781Z,66.57
2022-10-26T02:24:17.528Z,135.13
2022-10-26T02:26:47.263Z,137.52
2022-10-26T02:29:17.908Z,133.57
2022-10-26T02:31:47.136Z,154.52
2022-10-26T02:34:18.840Z,153.40
2022-10-26T02:36:49.236Z,134.88
2022-10-26T02:39:18.312Z,130.95
2022-10-26T02:41:45.924Z,86.88
2022-10-26T02:44:24.554Z,84.13
2022-10-26T02:46:52.486Z,95.03
2022-10-26T02:49:19.574Z,135.63
2022-10-26T02:51:51.264Z,126.15
2022-10-26T02:54:26.615Z,118.32
2022-10-26T02:56:57.930Z,108.07
2022-10-26T02:59:28.844Z,121.63
2022-10-26T03:01:55.818Z,122.63
2022-10-26T03:04:29.314Z,136.30
2022-10-26T03:06:55.909Z,136.70
2022-10-26T03:09:25.458Z,102.10
2022-10-26T03:11:52.643Z,122.95
2022-10-26T03:14:19.184Z,112.40
2022-10-26T03:16:45.936Z,125.30
2022-10-26T03:19:12.583Z,79.88
2022-10-26T03:21:39.217Z,121.20
2022-10-26T03:24:06.041Z,124.97
2022-10-26T03:26:32.609Z,141.05
2022-10-26T03:28:59.257Z,170.98
2022-10-26T03:31:26.036Z,153.73
2022-10-26T03:33:52.492Z,158.35
2022-10-26T03:36:18.950Z,154.20
2022-10-26T03:38:45.376Z,141.65
2022-10-26T03:41:12.255Z,174.13
2022-10-26T03:43:38.871Z,127.50
2022-10-26T03:46:05.335Z,143.07
2022-10-26T03:48:31.795Z,178.10
2022-10-26T03:50:59.635Z,130.57
2022-10-26T03:53:27.171Z,128.48
2022-10-26T03:55:53.613Z,141.20
2022-10-26T03:58:20.449Z,113.03
2022-10-26T04:00:47.994Z,157.27
2022-10-26T04:03:15.608Z,149.52
2022-10-26T04:05:42.110Z,149.13
2022-10-26T04:08:08.819Z,156.98
2022-10-26T04:10:35.584Z,161.45
2022-10-26T04:13:02.037Z,131.07
2022-10-26T04:15:29.109Z,148.32
2022-10-26T04:18:00.558Z,197.43
2022-10-26T04:20:29.021Z,195.25
2022-10-26T04:23:04.433Z,170.52
2022-10-26T04:25:33.240Z,189.68
2022-10-26T04:28:01.803Z,179.20
2022-10-26T04:30:28.683Z,147.40
2022-10-26T04:32:55.510Z,160.13
2022-10-26T04:35:22.000Z,197.18
2022-10-26T04:37:48.472Z,209.50
2022-10-26T04:40:15.079Z,187.20
2022-10-26T04:42:46.618Z,203.77
2022-10-26T04:45:16.063Z,159.43
2022-10-26T04:47:42.683Z,162.93
2022-10-26T04:50:10.821Z,177.57
2022-10-26T04:52:37.948Z,189.27
2022-10-26T04:55:06.080Z,199.10
2022-10-26T04:57:33.784Z,177.55
2022-10-26T05:00:02.148Z,182.02
2022-10-26T05:02:29.497Z,163.10
2022-10-26T05:04:56.243Z,157.73
2022-10-26T05:07:22.891Z,176.93
2022-10-26T05:09:49.350Z,138.05
2022-10-26T05:12:15.874Z,121.93
2022-10-26T05:14:42.370Z,148.45
2022-10-26T05:17:08.855Z,104.90
2022-10-26T05:19:35.317Z,149.25
2022-10-26T05:22:01.882Z,131.85
2022-10-26T05:24:28.374Z,99.07
2022-10-26T05:26:54.926Z,73.20
2022-10-26T05:29:21.383Z,60.15
2022-10-26T05:31:47.844Z,87.90
2022-10-26T05:34:14.306Z,92.93
2022-10-26T05:36:40.842Z,63.65
2022-10-26T05:39:07.348Z,55.35
2022-10-26T05:41:33.815Z,90.28
2022-10-26T05:44:00.280Z,65.55
2022-10-26T05:46:26.819Z,40.55
2022-10-26T05:48:53.350Z,61.13
2022-10-26T05:51:19.836Z,63.38
2022-10-26T05:53:46.322Z,51.55
2022-10-26T05:56:24.875Z,35.17
2022-10-26T05:58:51.674Z,25.13
2022-10-26T06:01:46.342Z,52.78
2022-10-26T06:04:48.960Z,41.30
2022-10-26T06:07:19.335Z,19.75
2022-10-26T06:09:46.520Z,52.90
2022-10-26T06:12:16.852Z,52.55
2022-10-26T06:14:46.243Z,55.35
2022-10-26T06:17:26.778Z,52.22
2022-10-26T06:22:55.215Z,57.55
2022-10-26T06:25:33.799Z,44.88
2022-10-26T06:28:00.239Z,60.08
2022-10-26T06:30:26.846Z,75.80
2022-10-26T06:33:01.396Z,40.20
2022-10-26T06:35:56.048Z,26.15
2022-10-26T06:38:23.688Z,27.40
2022-10-26T06:40:53.074Z,44.30
2022-10-26T06:43:27.049Z,37.97
2022-10-26T06:46:43.200Z,37.88
2022-10-26T06:49:18.487Z,21.40
2022-10-26T06:52:10.214Z,27.98
2022-10-26T06:54:52.678Z,31.45
2022-10-26T06:57:21.691Z,19.80
2022-10-26T06:59:58.413Z,52.47
2022-10-26T07:02:25.138Z,52.42
2022-10-26T07:04:51.896Z,49.53
2022-10-26T07:07:20.925Z,77.03
2022-10-26T07:09:47.550Z,47.33
2022-10-26T07:12:14.063Z,85.45
2022-10-26T07:14:40.837Z,102.40
2022-10-26T07:17:08.990Z,56.40
2022-10-26T07:19:35.752Z,42.55
2022-10-26T07:22:03.058Z,114.78
2022-10-26T07:24:30.495Z,81.57
2022-10-26T07:26:58.343Z,79.78
2022-10-26T07:29:25.991Z,48.33
2022-10-26T07:34:21.116Z,126.18
2022-10-26T07:36:47.632Z,122.45
2022-10-26T07:39:14.235Z,86.82
2022-10-26T07:41:40.795Z,45.33
2022-10-26T07:44:07.430Z,71.20
2022-10-26T07:46:33.963Z,74.47
2022-10-26T07:49:00.468Z,112.82
2022-10-26T07:51:26.962Z,74.97
2022-10-26T07:53:53.521Z,67.32
2022-10-26T07:56:19.996Z,80.97
2022-10-26T07:58:46.544Z,80.22
2022-10-26T08:01:15.029Z,80.82
2022-10-26T08:03:41.906Z,47.08
2022-10-26T08:06:09.577Z,52.90
2022-10-26T08:08:37.031Z,74.50
2022-10-26T08:11:04.298Z,66.60
2022-10-26T08:13:31.115Z,87.45
2022-10-26T08:15:59.097Z,47.75
2022-10-26T08:18:25.766Z,33.83
2022-10-26T08:20:52.349Z,77.20
2022-10-26T08:23:18.898Z,40.60
2022-10-26T08:25:45.587Z,51.67
2022-10-26T08:28:14.331Z,76.57
2022-10-26T08:30:40.917Z,67.35
2022-10-26T08:33:08.357Z,45.38
2022-10-26T08:35:34.952Z,49.30
2022-10-26T08:38:01.546Z,33.50
2022-10-26T08:40:34.014Z,53.90
2022-10-26T08:43:07.455Z,52.60
2022-10-26T08:45:39.174Z,34.05
2022-10-26T08:48:14.900Z,69.72
2022-10-26T08:51:21.859Z,59.40
2022-10-26T08:53:57.120Z,11.10
2022-10-26T08:56:29.295Z,42.83
2022-10-26T08:59:00.916Z,69.78
2022-10-26T09:01:31.469Z,75.93
2022-10-26T09:06:46.688Z,59.03
2022-10-26T09:09:24.444Z,35.58
2022-10-26T09:12:14.238Z,36.60
2022-10-26T09:14:46.994Z,62.40
2022-10-26T09:17:26.413Z,51.97
2022-10-26T09:20:05.378Z,33.85
2022-10-26T09:22:41.669Z,32.10
2022-10-26T09:25:19.682Z,86.43
2022-10-26T09:28:01.656Z,48.30
2022-10-26T09:49:41.314Z,27.63
2022-10-26T09:52:08.740Z,66.60
2022-10-26T09:54:35.231Z,114.82
2022-10-26T09:57:04.036Z,111.40
2022-10-26T10:00:14.490Z,150.95
2022-10-26T10:02:46.283Z,103.70
2022-10-26T10:05:49.803Z,103.60
2022-10-26T10:09:11.304Z,101.22
2022-10-26T10:11:55.039Z,42.10
2022-10-26T10:14:24.883Z,58.72
2022-10-26T10:16:57.763Z,33.72
2022-10-26T10:19:30.044Z,98.15
2022-10-26T10:22:09.837Z,52.92
2022-10-26T10:24:47.098Z,61.47
2022-10-26T10:27:15.537Z,24.67
2022-10-26T10:33:23.256Z,8.55
2022-10-26T10:35:51.988Z,20.38
2022-10-26T10:38:21.274Z,5.25
2022-10-26T10:40:57.783Z,12.65
2022-10-26T10:43:25.636Z,6.75
2022-10-26T10:45:59.391Z,4.78
2022-10-26T10:52:33.234Z,4.72
2022-10-26T10:55:21.034Z,3.42
2022-10-26T10:57:47.835Z,3.42
2022-10-26T11:00:15.178Z,3.60
2022-10-26T11:03:14.434Z,3.60
2022-10-26T11:09:28.148Z,3.40
2022-10-26T11:11:58.975Z,3.70
2022-10-26T11:14:30.569Z,4.25
2022-10-26T11:17:06.466Z,4.15
2022-10-26T11:19:40.328Z,3.75
2022-10-26T11:22:16.880Z,4.63
2022-10-26T11:24:46.126Z,3.60
2022-10-26T11:27:36.375Z,3.70
2022-10-26T11:30:18.005Z,3.05
2022-10-26T11:33:05.217Z,4.78
2022-10-26T11:35:44.428Z,3.65
2022-10-26T11:38:39.325Z,4.30
2022-10-26T11:41:39.107Z,3.92
2022-10-26T11:44:22.433Z,3.63
2022-10-26T11:46:57.401Z,3.97
2022-10-26T11:49:32.629Z,4.47
2022-10-26T11:52:08.354Z,4.45
2022-10-26T11:54:40.955Z,3.83
2022-10-26T11:57:07.544Z,4.47
2022-10-26T11:59:41.970Z,4.55
2022-10-26T12:02:15.633Z,3.90
2022-10-26T12:04:47.406Z,3.97
2022-10-26T12:07:21.563Z,4.65
2022-10-26T12:09:48.252Z,4.22
2022-10-26T12:12:31.668Z,4.43
2022-10-26T12:15:16.107Z,4.70
2022-10-26T12:17:53.526Z,4.80
2022-10-26T12:20:41.537Z,4.30
2022-10-26T12:23:11.208Z,4.40
2022-10-26T12:25:40.367Z,4.38
2022-10-26T12:28:39.864Z,4.93
2022-10-26T12:31:44.030Z,7.18
2022-10-26T12:34:14.628Z,4.85
2022-10-26T12:36:56.243Z,4.68
2022-10-26T12:39:40.771Z,4.22
2022-10-26T12:42:29.390Z,4.88
2022-10-26T12:44:58.849Z,5.05
2022-10-26T12:47:28.437Z,4.28
2022-10-26T12:50:07.098Z,4.00
2022-10-26T12:52:54.729Z,4.40
2022-10-26T12:55:42.118Z,4.70
2022-10-26T12:58:33.132Z,4.00
2022-10-26T13:00:59.659Z,3.88
2022-10-26T13:03:39.090Z,3.75
2022-10-26T13:06:11.390Z,4.82
2022-10-26T13:09:01.549Z,4.10
2022-10-26T13:11:35.827Z,3.95
2022-10-26T13:14:08.961Z,4.45
2022-10-26T13:16:35.907Z,3.80
2022-10-26T13:19:02.713Z,3.40
2022-10-26T13:21:29.559Z,3.38
2022-10-26T13:24:05.579Z,3.97
2022-10-26T13:26:33.211Z,4.05
2022-10-26T13:29:02.301Z,3.50
2022-10-26T13:31:28.760Z,4.07
2022-10-26T13:34:00.483Z,3.55
2022-10-26T13:36:38.622Z,4.22
2022-10-26T13:39:12.537Z,3.92
2022-10-26T13:41:42.589Z,4.53
2022-10-26T13:44:26.156Z,3.95
2022-10-26T13:46:59.854Z,4.55
2022-10-26T13:49:34.925Z,4.40
2022-10-26T13:52:04.119Z,4.85
2022-10-26T13:54:37.906Z,4.20
2022-10-26T13:57:16.546Z,4.30
2022-10-26T13:59:45.264Z,4.50
2022-10-26T14:02:22.949Z,4.57
2022-10-26T14:05:13.324Z,3.72
2022-10-26T14:07:51.488Z,4.15
2022-10-26T14:10:29.903Z,4.35
2022-10-26T14:12:57.664Z,4.47
2022-10-26T14:15:27.925Z,3.65
2022-10-26T14:17:55.534Z,4.45
2022-10-26T14:20:24.598Z,4.35
2022-10-26T14:22:51.494Z,4.28
2022-10-26T14:25:35.833Z,4.43
2022-10-26T14:28:31.897Z,3.90
2022-10-26T14:33:46.329Z,4.47
2022-10-26T14:36:13.619Z,4.82
2022-10-26T14:38:49.458Z,4.78
2022-10-26T14:41:17.712Z,4.43
2022-10-26T14:43:45.881Z,4.50
2022-10-26T14:46:16.354Z,4.40
2022-10-26T14:48:52.589Z,4.45
2022-10-26T14:51:22.289Z,4.03
2022-10-26T14:53:51.825Z,4.07
2022-10-26T14:56:21.862Z,4.50
2022-10-26T14:58:49.231Z,4.35
2022-10-26T15:01:24.532Z,4.00
2022-10-26T15:04:00.146Z,3.58
2022-10-26T15:06:29.732Z,4.03
2022-10-26T15:08:58.259Z,3.63
2022-10-26T15:11:26.177Z,3.90
2022-10-26T15:13:53.802Z,4.53
2022-10-26T15:16:25.629Z,4.07
2022-10-26T15:19:16.079Z,4.47
2022-10-26T15:21:47.402Z,4.38
2022-10-26T15:24:30.246Z,4.15
2022-10-26T15:26:59.632Z,4.03
2022-10-26T15:29:46.599Z,4.75
2022-10-26T15:32:28.779Z,4.82
2022-10-26T15:35:20.262Z,4.05
2022-10-26T15:37:47.885Z,4.18
2022-10-26T15:40:14.758Z,4.68
2022-10-26T15:42:42.425Z,5.07
2022-10-26T15:45:34.175Z,4.32
2022-10-26T15:48:22.742Z,4.85
2022-10-26T15:50:49.277Z,4.55
2022-10-26T15:53:20.530Z,4.18
2022-10-26T15:55:48.384Z,4.13
2022-10-26T15:58:15.468Z,4.40
2022-10-26T16:00:41.939Z,5.25
2022-10-26T16:03:22.737Z,4.90
2022-10-26T16:05:56.690Z,5.88
2022-10-26T16:08:23.475Z,4.63
2022-10-26T16:10:51.128Z,5.43
2022-10-26T16:13:17.890Z,4.90
2022-10-26T16:15:44.963Z,4.88
2022-10-26T16:18:11.564Z,4.47
2022-10-26T16:20:38.149Z,4.63
2022-10-26T16:23:07.603Z,4.30
2022-10-26T16:25:45.818Z,4.40
2022-10-26T16:28:14.695Z,5.10
2022-10-26T16:33:13.856Z,4.72
2022-10-26T16:35:40.490Z,4.43
2022-10-26T16:38:07.039Z,5.13
2022-10-26T16:40:33.512Z,4.70
2022-10-26T16:42:59.971Z,4.72
2022-10-26T16:45:26.455Z,4.63
2022-10-26T16:47:53.379Z,4.88
2022-10-26T16:50:22.058Z,4.75
2022-10-26T16:52:48.564Z,4.72
2022-10-26T16:55:15.549Z,4.43
2022-10-26T16:57:42.011Z,5.63
2022-10-26T17:00:08.944Z,5.40
2022-10-26T17:02:35.649Z,6.28
2022-10-26T17:05:05.920Z,5.28
2022-10-26T17:07:34.351Z,5.47
2022-10-26T17:10:00.867Z,4.43
2022-10-26T17:15:00.475Z,4.95
2022-10-26T17:17:27.100Z,5.32
2022-10-26T17:19:53.634Z,5.32
2022-10-26T17:22:20.219Z,6.65
2022-10-26T17:24:46.723Z,6.10
2022-10-26T17:27:13.206Z,5.32
2022-10-26T17:29:39.677Z,6.25
2022-10-26T17:32:06.199Z,6.20
2022-10-26T17:34:32.733Z,6.70
2022-10-26T17:36:59.278Z,7.00
2022-10-26T17:39:25.773Z,6.63
2022-10-26T17:41:52.249Z,7.07
2022-10-26T17:44:18.756Z,9.77
2022-10-26T17:46:45.635Z,7.72
2022-10-26T17:49:12.129Z,9.88
2022-10-26T17:51:38.617Z,9.07
2022-10-26T17:54:05.294Z,8.63
2022-10-26T17:56:34.147Z,11.27
2022-10-26T17:59:04.042Z,10.75
2022-10-26T18:01:31.779Z,16.25
2022-10-26T18:03:58.647Z,16.27
2022-10-26T18:06:25.691Z,15.75
2022-10-26T18:08:52.213Z,22.23
2022-10-26T18:11:26.448Z,25.65
2022-10-26T18:13:55.598Z,19.58
2022-10-26T18:16:23.225Z,21.52
2022-10-26T18:18:58.781Z,19.33
2022-10-26T18:21:25.807Z,14.57
2022-10-26T18:23:53.566Z,21.75
2022-10-26T18:26:22.049Z,15.10
2022-10-26T18:28:48.548Z,17.77
2022-10-26T18:31:20.433Z,29.52
2022-10-26T18:33:47.094Z,18.60
2022-10-26T18:36:15.906Z,25.40
2022-10-26T18:38:42.675Z,26.77
2022-10-26T18:41:13.905Z,24.45
2022-10-26T18:43:45.800Z,29.50
2022-10-26T18:46:17.697Z,25.63
2022-10-26T18:48:47.237Z,25.70
2022-10-26T18:51:15.635Z,30.52
2022-10-26T18:53:43.727Z,32.70
2022-10-26T18:56:19.474Z,31.23
2022-10-26T18:58:47.990Z,43.40
2022-10-26T19:01:14.521Z,39.33
2022-10-26T19:03:42.253Z,60.22
2022-10-26T19:06:10.974Z,40.25
2022-10-26T19:08:37.641Z,56.38
2022-10-26T19:11:06.095Z,66.30
2022-10-26T19:13:32.713Z,65.50
2022-10-26T19:16:01.065Z,37.25
2022-10-26T19:18:28.102Z,47.05
2022-10-26T19:20:59.910Z,42.13
2022-10-26T19:23:41.674Z,35.45
2022-10-26T19:26:09.983Z,54.70
2022-10-26T19:28:37.178Z,49.47
2022-10-26T19:31:05.971Z,57.47
2022-10-26T19:33:32.692Z,38.10
2022-10-26T19:36:06.781Z,30.17
2022-10-26T19:38:33.330Z,66.13
2022-10-26T19:41:05.430Z,61.72
2022-10-26T19:43:33.573Z,58.40
2022-10-26T19:46:09.866Z,68.90
2022-10-26T19:48:37.165Z,43.05
2022-10-26T19:51:04.343Z,41.00
2022-10-26T19:53:31.637Z,65.53
2022-10-26T19:55:59.944Z,80.65
2022-10-26T19:58:28.509Z,107.68
2022-10-26T20:03:29.386Z,89.72
2022-10-26T20:05:57.260Z,58.30
2022-10-26T20:08:24.454Z,48.90
2022-10-26T20:10:56.770Z,83.80
2022-10-26T20:13:24.216Z,105.90
2022-10-26T20:15:51.287Z,95.00
2022-10-26T20:18:18.665Z,79.75
2022-10-26T20:20:45.355Z,78.35
2022-10-26T20:23:12.795Z,70.97
2022-10-26T20:25:45.524Z,56.97
2022-10-26T20:28:12.494Z,67.82
2022-10-26T20:30:39.598Z,47.67
2022-10-26T20:33:06.105Z,89.50
2022-10-26T20:35:33.451Z,76.47
2022-10-26T20:38:00.490Z,94.40
2022-10-26T20:40:27.842Z,86.20
2022-10-26T20:42:55.337Z,83.30
2022-10-26T20:45:33.187Z,110.28
2022-10-26T20:48:01.042Z,56.00
2022-10-26T20:50:31.253Z,142.20
2022-10-26T20:53:00.688Z,143.38
2022-10-26T20:55:43.153Z,147.90
2022-10-26T20:58:17.378Z,107.78
2022-10-26T21:01:05.190Z,74.13
2022-10-26T21:03:31.800Z,92.60
2022-10-26T21:05:58.545Z,131.43
2022-10-26T21:08:25.081Z,104.07
2022-10-26T21:10:52.314Z,82.15
2022-10-26T21:13:19.155Z,81.28
2022-10-26T21:15:45.639Z,72.50
2022-10-26T21:18:12.110Z,100.63
2022-10-26T21:20:38.718Z,114.45
2022-10-26T21:23:05.211Z,101.50
2022-10-26T21:25:31.701Z,90.22
2022-10-26T21:27:58.718Z,75.65
2022-10-26T21:30:25.755Z,61.53
2022-10-26T21:32:53.244Z,92.85
2022-10-26T21:35:20.797Z,58.47
2022-10-26T21:37:47.630Z,67.93
2022-10-26T21:40:14.886Z,45.22
2022-10-26T21:42:41.348Z,72.40
2022-10-26T21:45:08.594Z,94.03
2022-10-26T21:47:35.089Z,73.40
2022-10-26T21:50:01.671Z,43.38
2022-10-26T21:52:28.760Z,58.25
2022-10-26T21:54:55.218Z,60.65
2022-10-26T21:57:21.708Z,133.10
2022-10-26T21:59:48.176Z,155.77
2022-10-26T22:02:14.677Z,142.27
2022-10-26T22:04:41.235Z,141.95
2022-10-26T22:07:07.892Z,131.45
2022-10-26T22:09:40.640Z,195.85
2022-10-26T22:12:16.061Z,159.43
2022-10-26T22:14:42.626Z,172.60
2022-10-26T22:17:09.147Z,192.88
2022-10-26T22:19:35.663Z,183.27
2022-10-26T22:22:02.750Z,176.55
2022-10-26T22:24:29.231Z,177.48
2022-10-26T22:26:56.081Z,164.98
2022-10-26T22:29:22.545Z,189.07
2022-10-26T22:31:50.662Z,167.45
2022-10-26T22:34:17.339Z,195.02
2022-10-26T22:36:44.606Z,181.02
2022-10-26T22:39:11.144Z,178.38
2022-10-26T22:41:37.620Z,192.23
2022-10-26T22:44:04.282Z,180.43
2022-10-26T22:46:30.903Z,204.80
2022-10-26T22:49:02.266Z,185.82
2022-10-26T22:51:34.090Z,201.98
2022-10-26T22:54:02.830Z,193.82
2022-10-26T22:56:30.576Z,175.88
2022-10-26T22:58:57.131Z,179.73
2022-10-26T23:01:26.202Z,201.80
2022-10-26T23:03:56.037Z,181.73
2022-10-26T23:06:24.806Z,152.63
2022-10-26T23:08:51.492Z,160.43
2022-10-26T23:11:19.729Z,169.68
2022-10-26T23:13:46.593Z,171.05
2022-10-26T23:16:15.603Z,163.55
2022-10-26T23:18:42.091Z,152.38
2022-10-26T23:21:10.408Z,163.65
2022-10-26T23:23:37.263Z,167.77
2022-10-26T23:26:07.053Z,195.70
2022-10-26T23:28:34.755Z,130.40
2022-10-26T23:31:01.611Z,181.30
2022-10-26T23:33:28.212Z,182.80
2022-10-26T23:35:54.783Z,180.98
2022-10-26T23:38:21.376Z,188.73
2022-10-26T23:40:56.678Z,178.07
2022-10-26T23:43:24.089Z,200.07
2022-10-26T23:45:50.894Z,228.75
2022-10-26T23:48:19.202Z,192.98
2022-10-26T23:50:47.726Z,211.93
2022-10-26T23:53:15.827Z,187.98
2022-10-26T23:55:45.965Z,213.88
2022-10-26T23:58:13.802Z,201.80
